createdAt,value
2018-12-01T00:02:21.751Z,99600.48
2018-12-01T00:05:09.255Z,99596.83
2018-12-01T00:07:41.895Z,99595.89
2018-12-01T00:10:14.534Z,99594.92
2018-12-01T00:12:47.145Z,99588.89
2018-12-01T00:15:24.356Z,99592.83
2018-12-01T00:17:57.173Z,99588.66
2018-12-01T00:20:31.861Z,99590.50
2018-12-01T00:23:05.582Z,99587.50
2018-12-01T00:25:38.870Z,99589.67
2018-12-01T00:28:11.522Z,99585.88
2018-12-01T00:30:44.102Z,99592.19
2018-12-01T00:33:16.649Z,99590.14
2018-12-01T00:35:49.362Z,99593.09
2018-12-01T00:38:22.022Z,99588.25
2018-12-01T00:40:54.641Z,99589.95
2018-12-01T00:43:27.974Z,99591.74
2018-12-01T00:45:59.890Z,99593.44
2018-12-01T00:48:32.485Z,99593.65
2018-12-01T00:51:05.570Z,99588.70
2018-12-01T00:53:38.174Z,99583.81
2018-12-01T00:56:10.944Z,99588.61
2018-12-01T00:58:43.479Z,99587.05
2018-12-01T01:01:16.070Z,99597.41
2018-12-01T01:03:48.692Z,99597.42
2018-12-01T01:06:21.380Z,99595.95
2018-12-01T01:08:54.147Z,99599.45
2018-12-01T01:11:26.842Z,99606.50
2018-12-01T01:13:59.497Z,99605.05
2018-12-01T01:16:32.120Z,99607.85
2018-12-01T01:19:04.956Z,99613.53
2018-12-01T01:21:37.583Z,99608.42
2018-12-01T01:24:10.166Z,99617.02
2018-12-01T01:26:42.812Z,99612.28
2018-12-01T01:29:15.419Z,99613.44
2018-12-01T01:31:48.071Z,99612.53
2018-12-01T01:34:20.749Z,99608.27
2018-12-01T01:36:53.374Z,99610.28
2018-12-01T01:39:25.961Z,99613.53
2018-12-01T01:41:58.537Z,99612.73
2018-12-01T01:44:31.142Z,99605.06
2018-12-01T01:47:03.839Z,99609.06
2018-12-01T01:49:36.439Z,99611.09
2018-12-01T01:52:09.197Z,99609.28
2018-12-01T01:54:41.940Z,99611.77
2018-12-01T01:57:14.552Z,99611.06
2018-12-01T01:59:47.230Z,99606.34
2018-12-01T02:02:20.306Z,99604.53
2018-12-01T02:04:52.941Z,99603.31
2018-12-01T02:07:25.517Z,99605.45
2018-12-01T02:09:58.146Z,99597.00
2018-12-01T02:12:30.758Z,99594.80
2018-12-01T02:15:04.242Z,99597.39
2018-12-01T02:17:36.896Z,99601.73
2018-12-01T02:20:14.502Z,99595.70
2018-12-01T02:22:47.252Z,99592.73
2018-12-01T02:25:19.898Z,99590.39
2018-12-01T02:27:52.563Z,99588.95
2018-12-01T02:30:25.128Z,99586.56
2018-12-01T02:32:57.831Z,99585.84
2018-12-01T02:35:31.204Z,99582.27
2018-12-01T02:38:03.857Z,99579.90
2018-12-01T02:40:36.445Z,99587.25
2018-12-01T02:43:09.172Z,99583.64
2018-12-01T02:45:53.206Z,99591.94
2018-12-01T02:48:25.730Z,99593.74
2018-12-01T02:50:58.334Z,99591.19
2018-12-01T02:53:30.936Z,99589.50
2018-12-01T02:56:03.505Z,99584.46
2018-12-01T02:58:36.161Z,99595.36
2018-12-01T03:01:08.725Z,99591.41
2018-12-01T03:03:41.362Z,99592.74
2018-12-01T03:06:14.686Z,99598.69
2018-12-01T03:08:47.293Z,99599.95
2018-12-01T03:11:19.891Z,99598.19
2018-12-01T03:13:52.581Z,99602.55
2018-12-01T03:16:25.143Z,99599.03
2018-12-01T03:18:57.855Z,99599.33
2018-12-01T03:21:30.474Z,99598.30
2018-12-01T03:24:03.167Z,99595.36
2018-12-01T03:26:35.785Z,99594.66
2018-12-01T03:29:08.519Z,99592.19
2018-12-01T03:31:41.155Z,99590.92
2018-12-01T03:34:13.774Z,99602.51
2018-12-01T03:36:46.381Z,99599.63
2018-12-01T03:39:19.053Z,99601.53
2018-12-01T03:41:51.696Z,99598.71
2018-12-01T03:44:24.289Z,99605.73
2018-12-01T03:46:56.906Z,99602.99
2018-12-01T03:49:29.494Z,99605.22
2018-12-01T03:52:02.144Z,99596.63
2018-12-01T03:54:34.707Z,99609.45
2018-12-01T03:57:07.407Z,99601.77
2018-12-01T03:59:40.097Z,99601.93
2018-12-01T04:02:12.626Z,99607.02
2018-12-01T04:04:45.250Z,99603.43
2018-12-01T04:07:17.891Z,99611.22
2018-12-01T04:09:50.532Z,99603.09
2018-12-01T04:12:23.214Z,99605.00
2018-12-01T04:14:55.845Z,99600.06
2018-12-01T04:17:28.537Z,99594.59
2018-12-01T04:20:01.093Z,99597.74
2018-12-01T04:22:33.747Z,99603.86
2018-12-01T04:25:07.662Z,99602.24
2018-12-01T04:27:40.340Z,99606.30
2018-12-01T04:30:20.814Z,99601.98
2018-12-01T04:32:53.558Z,99608.20
2018-12-01T04:35:26.253Z,99617.64
2018-12-01T04:37:58.888Z,99619.46
2018-12-01T04:40:31.458Z,99622.16
2018-12-01T04:43:04.190Z,99621.99
2018-12-01T04:45:36.718Z,99621.20
2018-12-01T04:48:09.312Z,99624.87
2018-12-01T04:50:41.901Z,99628.31
2018-12-01T04:53:14.497Z,99626.16
2018-12-01T04:55:47.099Z,99635.91
2018-12-01T04:58:19.661Z,99630.95
2018-12-01T05:00:52.291Z,99634.80
2018-12-01T05:03:24.916Z,99637.27
2018-12-01T05:05:57.611Z,99638.30
2018-12-01T05:08:30.257Z,99640.77
2018-12-01T05:11:02.835Z,99637.70
2018-12-01T05:13:35.586Z,99641.81
2018-12-01T05:16:08.206Z,99637.52
2018-12-01T05:18:40.777Z,99639.58
2018-12-01T05:21:13.465Z,99635.63
2018-12-01T05:23:46.043Z,99636.69
2018-12-01T05:26:18.677Z,99639.58
2018-12-01T05:28:51.389Z,99634.75
2018-12-01T05:31:23.975Z,99628.58
2018-12-01T05:33:56.622Z,99634.84
2018-12-01T05:36:29.206Z,99641.05
2018-12-01T05:39:01.833Z,99642.76
2018-12-01T05:41:34.519Z,99642.74
2018-12-01T05:44:07.058Z,99635.08
2018-12-01T05:46:39.694Z,99635.19
2018-12-01T05:49:12.331Z,99638.66
2018-12-01T05:51:44.914Z,99637.06
2018-12-01T05:54:17.486Z,99636.78
2018-12-01T05:56:50.132Z,99638.08
2018-12-01T05:59:23.509Z,99646.09
2018-12-01T06:01:56.071Z,99643.37
2018-12-01T06:04:28.707Z,99643.72
2018-12-01T06:07:01.330Z,99646.42
2018-12-01T06:09:34.016Z,99640.11
2018-12-01T06:12:06.639Z,99648.13
2018-12-01T06:14:39.274Z,99648.15
2018-12-01T06:17:11.880Z,99656.25
2018-12-01T06:19:44.453Z,99654.11
2018-12-01T06:22:17.072Z,99656.16
2018-12-01T06:24:49.728Z,99656.81
2018-12-01T06:27:22.357Z,99660.75
2018-12-01T06:29:54.902Z,99654.44
2018-12-01T06:32:27.650Z,99651.04
2018-12-01T06:35:00.318Z,99645.96
2018-12-01T06:37:32.943Z,99656.17
2018-12-01T06:40:08.824Z,99656.72
2018-12-01T06:42:41.443Z,99656.87
2018-12-01T06:45:14.806Z,99655.63
2018-12-01T06:47:47.490Z,99666.55
2018-12-01T06:50:22.205Z,99648.98
2018-12-01T06:52:54.846Z,99648.80
2018-12-01T06:55:27.469Z,99646.72
2018-12-01T06:58:00.182Z,99650.48
2018-12-01T07:00:32.870Z,99643.74
2018-12-01T07:03:05.734Z,99643.98
2018-12-01T07:05:38.377Z,99639.80
2018-12-01T07:08:11.103Z,99637.80
2018-12-01T07:10:43.884Z,99633.09
2018-12-01T07:13:16.517Z,99635.70
2018-12-01T07:15:49.111Z,99641.47
2018-12-01T07:18:33.002Z,99633.57
2018-12-01T07:21:05.694Z,99642.30
2018-12-01T07:23:38.344Z,99645.52
2018-12-01T07:26:11.075Z,99650.11
2018-12-01T07:28:43.713Z,99653.61
2018-12-01T07:31:16.343Z,99649.15
2018-12-01T07:33:49.063Z,99654.61
2018-12-01T07:36:21.773Z,99655.25
2018-12-01T07:38:54.494Z,99657.52
2018-12-01T07:41:27.141Z,99654.02
2018-12-01T07:43:59.847Z,99650.78
2018-12-01T07:46:32.471Z,99642.20
2018-12-01T07:49:05.147Z,99644.67
2018-12-01T07:51:37.769Z,99645.50
2018-12-01T07:54:10.495Z,99642.91
2018-12-01T07:56:43.145Z,99639.50
2018-12-01T07:59:15.834Z,99640.95
2018-12-01T08:01:48.604Z,99642.81
2018-12-01T08:04:21.213Z,99641.55
2018-12-01T08:06:53.882Z,99638.50
2018-12-01T08:09:26.464Z,99639.92
2018-12-01T08:11:59.150Z,99639.22
2018-12-01T08:14:31.823Z,99638.72
2018-12-01T08:17:04.725Z,99632.34
2018-12-01T08:19:37.413Z,99633.71
2018-12-01T08:22:10.091Z,99629.47
2018-12-01T08:24:42.771Z,99632.45
2018-12-01T08:27:15.479Z,99633.76
2018-12-01T08:29:48.119Z,99639.61
2018-12-01T08:32:20.794Z,99637.98
2018-12-01T08:34:53.450Z,99638.42
2018-12-01T08:37:26.160Z,99640.50
2018-12-01T08:39:58.831Z,99632.61
2018-12-01T08:42:31.515Z,99627.59
2018-12-01T08:45:07.612Z,99642.92
2018-12-01T08:47:40.734Z,99643.44
2018-12-01T08:50:15.442Z,99643.56
2018-12-01T08:52:48.161Z,99639.02
2018-12-01T08:55:22.724Z,99642.09
2018-12-01T08:57:55.457Z,99640.50
2018-12-01T09:00:30.559Z,99634.97
2018-12-01T09:03:20.248Z,99634.05
2018-12-01T09:05:53.402Z,99639.70
2018-12-01T09:08:26.102Z,99644.67
2018-12-01T09:10:58.715Z,99645.03
2018-12-01T09:13:31.370Z,99648.67
2018-12-01T09:16:04.091Z,99649.07
2018-12-01T09:18:36.691Z,99658.52
2018-12-01T09:21:09.250Z,99649.45
2018-12-01T09:23:42.060Z,99651.01
2018-12-01T09:26:14.812Z,99650.05
2018-12-01T09:28:47.510Z,99647.53
2018-12-01T09:31:20.197Z,99654.79
2018-12-01T09:33:52.870Z,99652.70
2018-12-01T09:36:25.517Z,99644.59
2018-12-01T09:38:58.216Z,99650.14
2018-12-01T09:41:30.917Z,99644.34
2018-12-01T09:44:03.566Z,99647.68
2018-12-01T09:46:36.443Z,99639.98
2018-12-01T09:49:10.021Z,99651.17
2018-12-01T09:51:42.843Z,99637.62
2018-12-01T09:54:15.518Z,99642.37
2018-12-01T09:56:48.182Z,99638.33
2018-12-01T09:59:20.847Z,99645.66
2018-12-01T10:01:53.738Z,99643.55
2018-12-01T10:04:26.375Z,99643.98
2018-12-01T10:06:59.045Z,99635.33
2018-12-01T10:09:31.667Z,99647.75
2018-12-01T10:12:05.089Z,99644.17
2018-12-01T10:14:37.773Z,99639.75
2018-12-01T10:17:10.389Z,99634.29
2018-12-01T10:19:43.027Z,99628.78
2018-12-01T10:22:15.727Z,99622.09
2018-12-01T10:24:48.410Z,99632.90
2018-12-01T10:27:21.141Z,99622.78
2018-12-01T10:29:53.818Z,99619.97
2018-12-01T10:32:26.611Z,99614.09
2018-12-01T10:34:59.231Z,99603.41
2018-12-01T10:37:31.865Z,99605.50
2018-12-01T10:40:09.392Z,99593.12
2018-12-01T10:42:42.106Z,99587.03
2018-12-01T10:45:17.008Z,99592.36
2018-12-01T10:47:50.091Z,99582.84
2018-12-01T10:50:23.535Z,99582.57
2018-12-01T10:52:56.172Z,99574.02
2018-12-01T10:55:31.687Z,99575.91
2018-12-01T10:58:16.499Z,99567.45
2018-12-01T11:00:55.903Z,99580.53
2018-12-01T11:03:34.988Z,99586.41
2018-12-01T11:06:13.384Z,99586.52
2018-12-01T11:08:46.054Z,99594.89
2018-12-01T11:11:19.293Z,99585.59
2018-12-01T11:13:51.866Z,99586.09
2018-12-01T11:16:24.563Z,99582.14
2018-12-01T11:18:57.309Z,99573.97
2018-12-01T11:21:30.094Z,99576.64
2018-12-01T11:24:02.826Z,99564.00
2018-12-01T11:26:35.571Z,99560.22
2018-12-01T11:29:08.347Z,99562.56
2018-12-01T11:31:41.075Z,99570.84
2018-12-01T11:34:13.765Z,99567.93
2018-12-01T11:36:46.707Z,99575.16
2018-12-01T11:39:19.361Z,99574.14
2018-12-01T11:41:52.156Z,99568.13
2018-12-01T11:44:24.845Z,99567.09
2018-12-01T11:46:57.604Z,99558.73
2018-12-01T11:49:30.269Z,99557.80
2018-12-01T11:52:02.967Z,99562.49
2018-12-01T11:54:35.650Z,99560.41
2018-12-01T11:57:08.361Z,99560.50
2018-12-01T11:59:40.948Z,99562.19
2018-12-01T12:02:13.733Z,99562.14
2018-12-01T12:04:46.484Z,99556.80
2018-12-01T12:07:30.520Z,99548.68
2018-12-01T12:10:03.317Z,99549.95
2018-12-01T12:12:35.928Z,99556.75
2018-12-01T12:15:11.256Z,99557.13
2018-12-01T12:17:46.820Z,99555.20
2018-12-01T12:20:19.565Z,99548.41
2018-12-01T12:22:52.414Z,99548.41
2018-12-01T12:25:25.061Z,99552.87
2018-12-01T12:27:58.500Z,99536.54
2018-12-01T12:30:31.299Z,99543.09
2018-12-01T12:33:04.274Z,99537.75
2018-12-01T12:35:37.467Z,99534.94
2018-12-01T12:38:10.195Z,99529.88
2018-12-01T12:40:42.905Z,99531.55
2018-12-01T12:43:15.570Z,99533.05
2018-12-01T12:45:48.317Z,99532.11
2018-12-01T12:48:20.933Z,99526.27
2018-12-01T12:50:53.662Z,99527.95
2018-12-01T12:53:26.279Z,99521.16
2018-12-01T12:55:59.056Z,99523.45
2018-12-01T12:58:31.788Z,99518.03
2018-12-01T13:01:05.019Z,99512.80
2018-12-01T13:03:37.762Z,99510.70
2018-12-01T13:06:10.645Z,99508.12
2018-12-01T13:08:43.345Z,99511.45
2018-12-01T13:11:16.017Z,99511.40
2018-12-01T13:13:48.790Z,99507.88
2018-12-01T13:16:21.536Z,99507.98
2018-12-01T13:18:54.136Z,99504.30
2018-12-01T13:21:26.756Z,99495.91
2018-12-01T13:23:59.420Z,99492.22
2018-12-01T13:26:32.105Z,99490.45
2018-12-01T13:29:04.743Z,99490.85
2018-12-01T13:31:38.054Z,99495.94
2018-12-01T13:34:11.897Z,99502.44
2018-12-01T13:36:44.568Z,99490.97
2018-12-01T13:39:17.225Z,99487.81
2018-12-01T13:41:49.853Z,99487.61
2018-12-01T13:44:22.492Z,99482.07
2018-12-01T13:46:55.172Z,99486.31
2018-12-01T13:49:27.947Z,99483.09
2018-12-01T13:52:00.650Z,99482.97
2018-12-01T13:54:33.347Z,99480.73
2018-12-01T13:57:06.064Z,99489.92
2018-12-01T13:59:38.789Z,99482.67
2018-12-01T14:02:11.528Z,99504.61
2018-12-01T14:04:44.099Z,99495.63
2018-12-01T14:07:16.824Z,99476.63
2018-12-01T14:09:49.571Z,99480.04
2018-12-01T14:12:22.278Z,99481.17
2018-12-01T14:14:54.982Z,99476.48
2018-12-01T14:17:29.550Z,99478.97
2018-12-01T14:20:02.336Z,99480.45
2018-12-01T14:22:35.046Z,99477.88
2018-12-01T14:25:09.915Z,99477.52
2018-12-01T14:27:44.244Z,99473.91
2018-12-01T14:30:17.077Z,99480.13
2018-12-01T14:32:50.755Z,99479.09
2018-12-01T14:35:24.781Z,99471.60
2018-12-01T14:38:04.597Z,99473.02
2018-12-01T14:40:38.322Z,99471.19
2018-12-01T14:43:11.318Z,99470.62
2018-12-01T14:45:45.322Z,99474.60
2018-12-01T14:48:17.966Z,99467.77
2018-12-01T14:50:50.699Z,99455.93
2018-12-01T14:53:23.336Z,99459.02
2018-12-01T14:55:56.023Z,99450.23
2018-12-01T14:58:28.693Z,99449.77
2018-12-01T15:01:03.059Z,99450.52
2018-12-01T15:03:35.679Z,99437.23
2018-12-01T15:06:08.504Z,99434.38
2018-12-01T15:08:41.220Z,99436.54
2018-12-01T15:11:13.931Z,99432.03
2018-12-01T15:13:46.530Z,99421.31
2018-12-01T15:16:19.265Z,99423.84
2018-12-01T15:18:51.871Z,99425.93
2018-12-01T15:21:24.554Z,99426.19
2018-12-01T15:23:58.108Z,99427.34
2018-12-01T15:26:30.949Z,99429.27
2018-12-01T15:29:03.612Z,99429.30
2018-12-01T15:31:36.352Z,99422.53
2018-12-01T15:34:09.102Z,99421.70
2018-12-01T15:36:42.812Z,99419.23
2018-12-01T15:39:26.632Z,99413.95
2018-12-01T15:41:59.497Z,99413.86
2018-12-01T15:44:32.195Z,99408.07
2018-12-01T15:47:04.987Z,99400.78
2018-12-01T15:49:37.754Z,99398.05
2018-12-01T15:52:10.507Z,99393.42
2018-12-01T15:54:43.403Z,99393.58
2018-12-01T15:57:16.145Z,99382.09
2018-12-01T15:59:48.859Z,99377.30
2018-12-01T16:02:21.530Z,99369.48
2018-12-01T16:04:54.206Z,99358.16
2018-12-01T16:07:26.970Z,99351.34
2018-12-01T16:09:59.682Z,99354.69
2018-12-01T16:12:32.375Z,99348.03
2018-12-01T16:15:09.310Z,99363.72
2018-12-01T16:17:42.715Z,99348.40
2018-12-01T16:20:15.540Z,99332.37
2018-12-01T16:22:48.304Z,99328.95
2018-12-01T16:25:23.026Z,99320.61
2018-12-01T16:27:55.759Z,99321.53
2018-12-01T16:30:30.922Z,99343.23
2018-12-01T16:33:05.967Z,99344.25
2018-12-01T16:35:38.732Z,99342.53
2018-12-01T16:38:12.867Z,99348.03
2018-12-01T16:40:49.752Z,99340.08
2018-12-01T16:43:22.467Z,99341.45
2018-12-01T16:45:55.221Z,99314.34
2018-12-01T16:48:28.075Z,99316.04
2018-12-01T16:51:00.803Z,99320.11
2018-12-01T16:53:33.535Z,99324.96
2018-12-01T16:56:06.178Z,99330.91
2018-12-01T16:58:38.971Z,99311.56
2018-12-01T17:01:11.773Z,99306.61
2018-12-01T17:03:44.433Z,99314.97
2018-12-01T17:06:18.462Z,99315.29
2018-12-01T17:08:52.504Z,99313.80
2018-12-01T17:11:25.268Z,99312.08
2018-12-01T17:13:58.648Z,99317.26
2018-12-01T17:16:31.343Z,99307.87
2018-12-01T17:19:04.302Z,99315.91
2018-12-01T17:21:36.937Z,99305.06
2018-12-01T17:24:09.578Z,99299.13
2018-12-01T17:26:42.274Z,99309.97
2018-12-01T17:29:14.966Z,99302.25
2018-12-01T17:31:47.589Z,99302.30
2018-12-01T17:34:20.355Z,99299.78
2018-12-01T17:36:53.065Z,99301.83
2018-12-01T17:39:25.791Z,99302.13
2018-12-01T17:41:59.991Z,99289.53
2018-12-01T17:44:32.757Z,99297.67
2018-12-01T17:47:05.808Z,99285.05
2018-12-01T17:49:38.492Z,99289.73
2018-12-01T17:52:11.417Z,99296.09
2018-12-01T17:54:44.132Z,99293.75
2018-12-01T17:57:16.818Z,99287.30
2018-12-01T17:59:49.543Z,99281.08
2018-12-01T18:02:22.236Z,99282.07
2018-12-01T18:04:55.849Z,99291.83
2018-12-01T18:07:28.502Z,99285.76
2018-12-01T18:10:01.247Z,99282.21
2018-12-01T18:12:33.817Z,99277.85
2018-12-01T18:15:10.152Z,99286.23
2018-12-01T18:17:42.877Z,99271.79
2018-12-01T18:20:19.590Z,99274.72
2018-12-01T18:22:56.535Z,99261.17
2018-12-01T18:25:32.004Z,99255.28
2018-12-01T18:28:05.476Z,99253.91
2018-12-01T18:30:39.304Z,99247.39
2018-12-01T18:33:21.768Z,99249.39
2018-12-01T18:35:54.546Z,99241.97
2018-12-01T18:38:27.397Z,99232.80
2018-12-01T18:41:00.191Z,99225.19
2018-12-01T18:43:32.851Z,99230.56
2018-12-01T18:46:10.318Z,99220.52
2018-12-01T18:48:43.850Z,99215.30
2018-12-01T18:51:16.587Z,99219.88
2018-12-01T18:53:49.410Z,99191.20
2018-12-01T18:56:22.135Z,99188.02
2018-12-01T18:58:54.798Z,99178.86
2018-12-01T19:01:27.398Z,99175.21
2018-12-01T19:04:00.141Z,99160.04
2018-12-01T19:06:32.794Z,99149.81
2018-12-01T19:09:07.246Z,99148.64
2018-12-01T19:11:40.020Z,99152.84
2018-12-01T19:14:12.716Z,99137.99
2018-12-01T19:16:45.401Z,99150.56
2018-12-01T19:19:18.172Z,99141.34
2018-12-01T19:21:50.863Z,99134.93
2018-12-01T19:24:23.465Z,99123.63
2018-12-01T19:26:56.156Z,99123.57
2018-12-01T19:29:28.826Z,99116.47
2018-12-01T19:32:02.550Z,99110.11
2018-12-01T19:34:35.233Z,99115.80
2018-12-01T19:37:07.897Z,99106.92
2018-12-01T19:39:40.577Z,99099.53
2018-12-01T19:42:13.347Z,99101.41
2018-12-01T19:44:46.017Z,99114.37
2018-12-01T19:47:18.909Z,99120.58
2018-12-01T19:49:51.702Z,99108.69
2018-12-01T19:52:24.384Z,99098.93
2018-12-01T19:54:57.133Z,99102.34
2018-12-01T19:57:29.789Z,99098.20
2018-12-01T20:00:02.568Z,99088.27
2018-12-01T20:02:35.369Z,99092.00
2018-12-01T20:05:09.868Z,99074.30
2018-12-01T20:07:42.696Z,99087.25
2018-12-01T20:10:20.676Z,99080.01
2018-12-01T20:12:56.568Z,99061.91
2018-12-01T20:15:31.256Z,99052.12
2018-12-01T20:18:21.255Z,99059.21
2018-12-01T20:20:53.962Z,99048.49
2018-12-01T20:23:26.664Z,99053.08
2018-12-01T20:25:59.382Z,99050.78
2018-12-01T20:28:32.246Z,99048.59
2018-12-01T20:31:05.267Z,99044.54
2018-12-01T20:33:38.013Z,99056.30
2018-12-01T20:36:17.917Z,99041.41
2018-12-01T20:38:53.378Z,99028.41
2018-12-01T20:41:26.096Z,99026.06
2018-12-01T20:43:58.785Z,99022.84
2018-12-01T20:46:31.606Z,99028.35
2018-12-01T20:49:04.702Z,99025.13
2018-12-01T20:51:37.405Z,99025.97
2018-12-01T20:54:21.083Z,99018.31
2018-12-01T20:56:58.564Z,99019.89
2018-12-01T20:59:31.289Z,99009.27
2018-12-01T21:02:03.912Z,99004.22
2018-12-01T21:04:36.615Z,99010.98
2018-12-01T21:07:09.301Z,99000.95
2018-12-01T21:09:41.987Z,99002.40
2018-12-01T21:12:15.278Z,98996.00
2018-12-01T21:14:47.945Z,98990.00
2018-12-01T21:17:20.691Z,99000.72
2018-12-01T21:19:53.463Z,98983.08
2018-12-01T21:22:26.190Z,98977.58
2018-12-01T21:24:58.882Z,98969.92
2018-12-01T21:27:31.526Z,98968.35
2018-12-01T21:30:08.921Z,98965.23
2018-12-01T21:32:41.672Z,98958.51
2018-12-01T21:35:14.428Z,98956.02
2018-12-01T21:37:47.102Z,98954.80
2018-12-01T21:40:20.202Z,98952.53
2018-12-01T21:42:52.898Z,98951.33
2018-12-01T21:45:25.526Z,98952.47
2018-12-01T21:47:58.253Z,98950.10
2018-12-01T21:50:30.922Z,98941.11
2018-12-01T21:53:03.785Z,98943.45
2018-12-01T21:55:36.418Z,98945.55
2018-12-01T21:58:09.142Z,98930.51
2018-12-01T22:00:45.277Z,98934.34
2018-12-01T22:03:18.627Z,98933.66
2018-12-01T22:05:55.664Z,98930.71
2018-12-01T22:08:28.969Z,98930.30
2018-12-01T22:11:01.673Z,98927.17
2018-12-01T22:13:34.389Z,98919.99
2018-12-01T22:16:08.037Z,98920.60
2018-12-01T22:18:40.719Z,98909.48
2018-12-01T22:21:13.400Z,98903.70
2018-12-01T22:23:46.065Z,98914.48
2018-12-01T22:26:18.680Z,98901.43
2018-12-01T22:28:51.415Z,98898.73
2018-12-01T22:31:24.964Z,98894.91
2018-12-01T22:33:57.616Z,98900.12
2018-12-01T22:36:30.406Z,98897.05
2018-12-01T22:39:04.029Z,98896.37
2018-12-01T22:41:36.641Z,98897.08
2018-12-01T22:44:09.289Z,98904.68
2018-12-01T22:46:41.917Z,98904.16
2018-12-01T22:49:15.698Z,98908.06
2018-12-01T22:51:47.214Z,98905.62
2018-12-01T22:54:19.947Z,98907.05
2018-12-01T22:56:52.694Z,98898.89
2018-12-01T22:59:25.368Z,98892.50
2018-12-01T23:01:58.055Z,98892.35
2018-12-01T23:04:30.659Z,98885.41
2018-12-01T23:07:03.305Z,98885.86
2018-12-01T23:09:36.030Z,98873.23
2018-12-01T23:12:08.713Z,98869.05
2018-12-01T23:14:41.424Z,98870.97
2018-12-01T23:17:14.102Z,98871.98
2018-12-01T23:19:46.752Z,98849.00
2018-12-01T23:22:19.444Z,98864.19
2018-12-01T23:24:52.051Z,98855.61
2018-12-01T23:27:24.741Z,98861.66
2018-12-01T23:29:57.358Z,98852.16
2018-12-01T23:32:30.026Z,98842.08
2018-12-01T23:35:02.622Z,98846.36
2018-12-01T23:37:36.213Z,98848.63
2018-12-01T23:40:10.434Z,98835.87
2018-12-01T23:42:43.062Z,98833.03
2018-12-01T23:45:16.794Z,98825.78
2018-12-01T23:47:49.497Z,98816.35
2018-12-01T23:50:24.333Z,98812.16
2018-12-01T23:52:59.898Z,98801.57
2018-12-01T23:55:33.243Z,98795.90
2018-12-01T23:58:05.890Z,98805.83
